sensor_id;sensor_type;location;lat;lon;timestamp;pressure;altitude;pressure_sealevel;temperature;humidity
53868;BME280;41577;47.470;19.080;2023-06-26T00:00:07;100062.56;;;19.62;100.00
53868;BME280;41577;47.470;19.080;2023-06-26T00:00:19;100064.44;;;19.62;100.00
53868;BME280;41577;47.470;19.080;2023-06-26T00:00:31;100057.38;;;19.61;100.00
53868;BME280;41577;47.470;19.080;2023-06-26T00:00:42;100060.09;;;19.61;100.00
53868;BME280;41577;47.470;19.080;2023-06-26T00:00:54;100060.09;;;19.61;100.00
53868;BME280;41577;47.470;19.080;2023-06-26T00:01:06;100061.19;;;19.60;100.00
53868;BME280;41577;47.470;19.080;2023-06-26T00:01:18;100063.06;;;19.59;100.00
53868;BME280;41577;47.470;19.080;2023-06-26T00:01:31;100060.38;;;19.59;100.00
53868;BME280;41577;47.470;19.080;2023-06-26T00:01:43;100055.19;;;19.58;100.00
53868;BME280;41577;47.470;19.080;2023-06-26T00:01:54;100059.53;;;19.59;100.00
53868;BME280;41577;47.470;19.080;2023-06-26T00:02:06;100060.59;;;19.58;100.00
53868;BME280;41577;47.470;19.080;2023-06-26T00:02:18;100065.22;;;19.57;100.00
53868;BME280;41577;47.470;19.080;2023-06-26T00:02:30;100058.13;;;19.56;100.00
53868;BME280;41577;47.470;19.080;2023-06-26T00:02:42;100061.69;;;19.57;100.00
53868;BME280;41577;47.470;19.080;2023-06-26T00:02:53;100060.84;;;19.56;100.00
53868;BME280;41577;47.470;19.080;2023-06-26T00:03:05;100060.84;;;19.56;100.00
53868;BME280;41577;47.470;19.080;2023-06-26T00:03:17;100056.53;;;19.55;100.00
53868;BME280;41577;47.470;19.080;2023-06-26T00:03:29;100053.81;;;19.55;100.00
53868;BME280;41577;47.470;19.080;2023-06-26T00:03:40;100057.31;;;19.56;100.00
53868;BME280;41577;47.470;19.080;2023-06-26T00:03:52;100049.72;;;19.53;100.00
53868;BME280;41577;47.470;19.080;2023-06-26T00:04:04;100054.06;;;19.54;100.00
53868;BME280;41577;47.470;19.080;2023-06-26T00:04:16;100061.38;;;19.53;100.00
53868;BME280;41577;47.470;19.080;2023-06-26T00:04:28;100060.56;;;19.53;100.00
53868;BME280;41577;47.470;19.080;2023-06-26T00:04:41;100058.66;;;19.53;100.00
53868;BME280;41577;47.470;19.080;2023-06-26T00:04:53;100058.91;;;19.52;100.00
53868;BME280;41577;47.470;19.080;2023-06-26T00:05:06;100058.91;;;19.52;100.00
53868;BME280;41577;47.470;19.080;2023-06-26T00:05:18;100058.91;;;19.52;100.00
53868;BME280;41577;47.470;19.080;2023-06-26T00:05:29;100056.19;;;19.52;100.00
53868;BME280;41577;47.470;19.080;2023-06-26T00:05:41;100065.41;;;19.51;100.00
53868;BME280;41577;47.470;19.080;2023-06-26T00:05:53;100056.47;;;19.50;100.00
53868;BME280;41577;47.470;19.080;2023-06-26T00:06:05;100059.19;;;19.50;100.00
53868;BME280;41577;47.470;19.080;2023-06-26T00:06:16;100055.38;;;19.51;100.00
53868;BME280;41577;47.470;19.080;2023-06-26T00:06:28;100059.19;;;19.50;100.00
53868;BME280;41577;47.470;19.080;2023-06-26T00:06:40;100055.63;;;19.50;100.00
53868;BME280;41577;47.470;19.080;2023-06-26T00:06:52;100051.28;;;19.49;100.00
53868;BME280;41577;47.470;19.080;2023-06-26T00:07:04;100059.19;;;19.50;100.00
53868;BME280;41577;47.470;19.080;2023-06-26T00:07:16;100058.34;;;19.50;100.00
53868;BME280;41577;47.470;19.080;2023-06-26T00:07:28;100057.53;;;19.49;100.00
53868;BME280;41577;47.470;19.080;2023-06-26T00:07:40;100062.13;;;19.49;100.00
53868;BME280;41577;47.470;19.080;2023-06-26T00:07:52;100061.03;;;19.50;100.00
53868;BME280;41577;47.470;19.080;2023-06-26T00:08:04;100056.72;;;19.49;100.00
53868;BME280;41577;47.470;19.080;2023-06-26T00:08:15;100057.75;;;19.48;100.00
53868;BME280;41577;47.470;19.080;2023-06-26T00:08:28;100062.13;;;19.49;100.00
53868;BME280;41577;47.470;19.080;2023-06-26T00:08:40;100058.59;;;19.48;100.00
53868;BME280;41577;47.470;19.080;2023-06-26T00:08:52;100055.91;;;19.48;100.00
53868;BME280;41577;47.470;19.080;2023-06-26T00:09:04;100057.75;;;19.48;100.00
53868;BME280;41577;47.470;19.080;2023-06-26T00:09:16;100061.31;;;19.48;100.00
53868;BME280;41577;47.470;19.080;2023-06-26T00:09:27;100052.34;;;19.48;100.00
53868;BME280;41577;47.470;19.080;2023-06-26T00:09:39;100050.47;;;19.48;100.00
53868;BME280;41577;47.470;19.080;2023-06-26T00:09:51;100053.19;;;19.48;100.00
53868;BME280;41577;47.470;19.080;2023-06-26T00:10:03;100055.06;;;19.48;100.00
53868;BME280;41577;47.470;19.080;2023-06-26T00:10:15;100059.66;;;19.47;100.00
53868;BME280;41577;47.470;19.080;2023-06-26T00:10:27;100059.66;;;19.47;100.00
53868;BME280;41577;47.470;19.080;2023-06-26T00:10:39;100059.66;;;19.47;100.00
53868;BME280;41577;47.470;19.080;2023-06-26T00:10:51;100061.31;;;19.48;100.00
53868;BME280;41577;47.470;19.080;2023-06-26T00:11:03;100058.59;;;19.48;100.00
53868;BME280;41577;47.470;19.080;2023-06-26T00:11:15;100057.75;;;19.48;100.00
53868;BME280;41577;47.470;19.080;2023-06-26T00:11:26;100054.25;;;19.47;100.00
53868;BME280;41577;47.470;19.080;2023-06-26T00:11:38;100058.84;;;19.47;100.00
53868;BME280;41577;47.470;19.080;2023-06-26T00:11:50;100057.75;;;19.48;100.00
53868;BME280;41577;47.470;19.080;2023-06-26T00:12:02;100064.25;;;19.47;100.00
53868;BME280;41577;47.470;19.080;2023-06-26T00:12:13;100058.03;;;19.46;100.00
53868;BME280;41577;47.470;19.080;2023-06-26T00:12:27;100063.19;;;19.48;100.00
53868;BME280;41577;47.470;19.080;2023-06-26T00:12:38;100056.16;;;19.47;100.00
53868;BME280;41577;47.470;19.080;2023-06-26T00:12:50;100063.47;;;19.46;100.00
53868;BME280;41577;47.470;19.080;2023-06-26T00:13:02;100059.66;;;19.47;100.00
53868;BME280;41577;47.470;19.080;2023-06-26T00:13:14;100058.59;;;19.48;100.00
53868;BME280;41577;47.470;19.080;2023-06-26T00:13:25;100056.72;;;19.49;100.00
53868;BME280;41577;47.470;19.080;2023-06-26T00:13:37;100058.59;;;19.48;100.00
53868;BME280;41577;47.470;19.080;2023-06-26T00:13:49;100056.72;;;19.49;100.00
53868;BME280;41577;47.470;19.080;2023-06-26T00:14:01;100064.03;;;19.48;100.00
53868;BME280;41577;47.470;19.080;2023-06-26T00:14:13;100067.53;;;19.49;100.00
53868;BME280;41577;47.470;19.080;2023-06-26T00:14:24;100062.13;;;19.49;100.00
53868;BME280;41577;47.470;19.080;2023-06-26T00:14:36;100060.47;;;19.48;100.00
53868;BME280;41577;47.470;19.080;2023-06-26T00:14:48;100055.91;;;19.48;100.00
53868;BME280;41577;47.470;19.080;2023-06-26T00:15:00;100060.22;;;19.49;100.00
53868;BME280;41577;47.470;19.080;2023-06-26T00:15:11;100064.84;;;19.49;100.00
53868;BME280;41577;47.470;19.080;2023-06-26T00:15:23;100062.13;;;19.49;100.00
53868;BME280;41577;47.470;19.080;2023-06-26T00:15:35;100058.59;;;19.48;100.00
53868;BME280;41577;47.470;19.080;2023-06-26T00:15:46;100068.34;;;19.49;100.00
53868;BME280;41577;47.470;19.080;2023-06-26T00:15:58;100064.03;;;19.48;100.00
53868;BME280;41577;47.470;19.080;2023-06-26T00:16:10;100066.72;;;19.48;100.00
53868;BME280;41577;47.470;19.080;2023-06-26T00:16:22;100062.94;;;19.49;100.00
53868;BME280;41577;47.470;19.080;2023-06-26T00:16:35;100062.13;;;19.49;100.00
53868;BME280;41577;47.470;19.080;2023-06-26T00:16:47;100067.53;;;19.49;100.00
53868;BME280;41577;47.470;19.080;2023-06-26T00:16:59;100064.03;;;19.48;100.00
53868;BME280;41577;47.470;19.080;2023-06-26T00:17:11;100062.94;;;19.49;100.00
53868;BME280;41577;47.470;19.080;2023-06-26T00:17:23;100062.13;;;19.49;100.00
53868;BME280;41577;47.470;19.080;2023-06-26T00:17:35;100063.75;;;19.50;100.00
53868;BME280;41577;47.470;19.080;2023-06-26T00:17:46;100069.16;;;19.50;100.00
53868;BME280;41577;47.470;19.080;2023-06-26T00:17:58;100064.84;;;19.49;100.00
53868;BME280;41577;47.470;19.080;2023-06-26T00:18:10;100067.53;;;19.49;100.00
53868;BME280;41577;47.470;19.080;2023-06-26T00:18:22;100068.34;;;19.49;100.00
53868;BME280;41577;47.470;19.080;2023-06-26T00:18:34;100065.66;;;19.49;100.00
53868;BME280;41577;47.470;19.080;2023-06-26T00:18:45;100066.72;;;19.48;100.00
53868;BME280;41577;47.470;19.080;2023-06-26T00:18:57;100066.47;;;19.50;100.00
53868;BME280;41577;47.470;19.080;2023-06-26T00:19:09;100057.75;;;19.48;100.00
53868;BME280;41577;47.470;19.080;2023-06-26T00:19:21;100066.72;;;19.48;100.00
53868;BME280;41577;47.470;19.080;2023-06-26T00:19:32;100067.78;;;19.47;100.00
53868;BME280;41577;47.470;19.080;2023-06-26T00:19:44;100067.78;;;19.47;100.00
53868;BME280;41577;47.470;19.080;2023-06-26T00:19:56;100071.31;;;19.48;100.00
53868;BME280;41577;47.470;19.080;2023-06-26T00:20:09;100059.66;;;19.47;100.00
53868;BME280;41577;47.470;19.080;2023-06-26T00:20:23;100064.25;;;19.47;100.00
53868;BME280;41577;47.470;19.080;2023-06-26T00:20:35;100062.66;;;19.46;100.00
53868;BME280;41577;47.470;19.080;2023-06-26T00:20:47;100064.25;;;19.47;100.00
53868;BME280;41577;47.470;19.080;2023-06-26T00:20:58;100072.41;;;19.47;100.00
53868;BME280;41577;47.470;19.080;2023-06-26T00:21:10;100074.28;;;19.46;100.00
53868;BME280;41577;47.470;19.080;2023-06-26T00:21:22;100060.69;;;19.41;100.00
53868;BME280;41577;47.470;19.080;2023-06-26T00:21:34;100069.94;;;19.45;100.00
53868;BME280;41577;47.470;19.080;2023-06-26T00:21:45;100067.22;;;19.45;100.00
53868;BME280;41577;47.470;19.080;2023-06-26T00:21:57;100068.88;;;19.46;100.00
53868;BME280;41577;47.470;19.080;2023-06-26T00:22:09;100067.78;;;19.47;100.00
53868;BME280;41577;47.470;19.080;2023-06-26T00:22:21;100060.19;;;19.44;100.00
53868;BME280;41577;47.470;19.080;2023-06-26T00:22:33;100065.06;;;19.47;100.00
53868;BME280;41577;47.470;19.080;2023-06-26T00:22:44;100065.88;;;19.48;100.00
53868;BME280;41577;47.470;19.080;2023-06-26T00:22:56;100071.31;;;19.48;100.00
53868;BME280;41577;47.470;19.080;2023-06-26T00:23:08;100065.88;;;19.48;100.00
53868;BME280;41577;47.470;19.080;2023-06-26T00:23:20;100059.66;;;19.47;100.00
53868;BME280;41577;47.470;19.080;2023-06-26T00:23:31;100063.47;;;19.46;100.00
53868;BME280;41577;47.470;19.080;2023-06-26T00:23:43;100056.94;;;19.47;100.00
53868;BME280;41577;47.470;19.080;2023-06-26T00:23:55;100072.16;;;19.48;100.00
53868;BME280;41577;47.470;19.080;2023-06-26T00:24:06;100058.84;;;19.47;100.00
53868;BME280;41577;47.470;19.080;2023-06-26T00:24:18;100060.47;;;19.48;100.00
53868;BME280;41577;47.470;19.080;2023-06-26T00:24:30;100064.84;;;19.49;100.00
53868;BME280;41577;47.470;19.080;2023-06-26T00:24:42;100070.25;;;19.49;100.00
53868;BME280;41577;47.470;19.080;2023-06-26T00:24:53;100064.03;;;19.48;100.00
53868;BME280;41577;47.470;19.080;2023-06-26T00:25:05;100064.03;;;19.48;100.00
53868;BME280;41577;47.470;19.080;2023-06-26T00:25:17;100065.66;;;19.49;100.00
53868;BME280;41577;47.470;19.080;2023-06-26T00:25:29;100064.03;;;19.48;100.00
53868;BME280;41577;47.470;19.080;2023-06-26T00:25:41;100061.03;;;19.50;100.00
53868;BME280;41577;47.470;19.080;2023-06-26T00:25:52;100062.94;;;19.49;100.00
53868;BME280;41577;47.470;19.080;2023-06-26T00:26:04;100069.16;;;19.50;100.00
53868;BME280;41577;47.470;19.080;2023-06-26T00:26:16;100063.75;;;19.50;100.00
53868;BME280;41577;47.470;19.080;2023-06-26T00:26:28;100066.47;;;19.50;100.00
53868;BME280;41577;47.470;19.080;2023-06-26T00:26:39;100070.00;;;19.50;100.00
53868;BME280;41577;47.470;19.080;2023-06-26T00:26:51;100062.94;;;19.49;100.00
53868;BME280;41577;47.470;19.080;2023-06-26T00:27:03;100066.22;;;19.51;100.00
53868;BME280;41577;47.470;19.080;2023-06-26T00:27:15;100066.22;;;19.51;100.00
53868;BME280;41577;47.470;19.080;2023-06-26T00:27:28;100070.00;;;19.50;100.00
53868;BME280;41577;47.470;19.080;2023-06-26T00:27:40;100069.75;;;19.52;100.00
53868;BME280;41577;47.470;19.080;2023-06-26T00:27:51;100066.47;;;19.50;100.00
53868;BME280;41577;47.470;19.080;2023-06-26T00:28:03;100064.59;;;19.50;100.00
53868;BME280;41577;47.470;19.080;2023-06-26T00:28:15;100064.59;;;19.50;100.00
53868;BME280;41577;47.470;19.080;2023-06-26T00:28:27;100066.22;;;19.51;100.00
53868;BME280;41577;47.470;19.080;2023-06-26T00:28:38;100062.69;;;19.51;100.00
53868;BME280;41577;47.470;19.080;2023-06-26T00:28:50;100063.50;;;19.51;100.00
53868;BME280;41577;47.470;19.080;2023-06-26T00:29:02;100064.59;;;19.50;100.00
53868;BME280;41577;47.470;19.080;2023-06-26T00:29:14;100061.88;;;19.50;100.00
53868;BME280;41577;47.470;19.080;2023-06-26T00:29:26;100063.50;;;19.51;100.00
53868;BME280;41577;47.470;19.080;2023-06-26T00:29:37;100064.31;;;19.52;100.00
53868;BME280;41577;47.470;19.080;2023-06-26T00:29:49;100064.59;;;19.50;100.00
53868;BME280;41577;47.470;19.080;2023-06-26T00:30:01;100060.00;;;19.51;100.00
53868;BME280;41577;47.470;19.080;2023-06-26T00:30:13;100067.03;;;19.52;100.00
53868;BME280;41577;47.470;19.080;2023-06-26T00:30:24;100066.22;;;19.51;100.00
53868;BME280;41577;47.470;19.080;2023-06-26T00:30:36;100064.31;;;19.52;100.00
53868;BME280;41577;47.470;19.080;2023-06-26T00:30:48;100064.31;;;19.52;100.00
53868;BME280;41577;47.470;19.080;2023-06-26T00:31:00;100072.44;;;19.52;100.00
53868;BME280;41577;47.470;19.080;2023-06-26T00:31:13;100060.81;;;19.51;100.00
53868;BME280;41577;47.470;19.080;2023-06-26T00:31:25;100067.84;;;19.52;100.00
53868;BME280;41577;47.470;19.080;2023-06-26T00:31:39;100066.22;;;19.51;100.00
53868;BME280;41577;47.470;19.080;2023-06-26T00:31:51;100058.91;;;19.52;100.00
53868;BME280;41577;47.470;19.080;2023-06-26T00:32:03;100064.88;;;19.54;100.00
53868;BME280;41577;47.470;19.080;2023-06-26T00:32:14;100067.03;;;19.52;100.00
53868;BME280;41577;47.470;19.080;2023-06-26T00:32:26;100065.97;;;19.53;100.00
53868;BME280;41577;47.470;19.080;2023-06-26T00:32:38;100065.97;;;19.53;100.00
53868;BME280;41577;47.470;19.080;2023-06-26T00:32:50;100057.00;;;19.52;100.00
53868;BME280;41577;47.470;19.080;2023-06-26T00:33:02;100062.41;;;19.52;100.00
53868;BME280;41577;47.470;19.080;2023-06-26T00:33:15;100067.84;;;19.52;100.00
53868;BME280;41577;47.470;19.080;2023-06-26T00:33:27;100064.06;;;19.53;100.00
53868;BME280;41577;47.470;19.080;2023-06-26T00:33:39;100063.25;;;19.53;100.00
53868;BME280;41577;47.470;19.080;2023-06-26T00:33:50;100061.38;;;19.53;100.00
53868;BME280;41577;47.470;19.080;2023-06-26T00:34:02;100057.84;;;19.53;100.00
53868;BME280;41577;47.470;19.080;2023-06-26T00:34:15;100063.00;;;19.54;100.00
53868;BME280;41577;47.470;19.080;2023-06-26T00:34:26;100067.59;;;19.54;100.00
53868;BME280;41577;47.470;19.080;2023-06-26T00:34:38;100058.66;;;19.53;100.00
53868;BME280;41577;47.470;19.080;2023-06-26T00:34:50;100063.00;;;19.54;100.00
53868;BME280;41577;47.470;19.080;2023-06-26T00:35:02;100060.28;;;19.54;100.00
53868;BME280;41577;47.470;19.080;2023-06-26T00:35:14;100061.13;;;19.55;100.00
53868;BME280;41577;47.470;19.080;2023-06-26T00:35:28;100064.66;;;19.55;100.00
53868;BME280;41577;47.470;19.080;2023-06-26T00:35:40;100063.00;;;19.54;100.00
53868;BME280;41577;47.470;19.080;2023-06-26T00:35:52;100063.84;;;19.55;100.00
53868;BME280;41577;47.470;19.080;2023-06-26T00:36:04;100059.22;;;19.55;100.00
53868;BME280;41577;47.470;19.080;2023-06-26T00:36:16;100057.31;;;19.56;100.00
53868;BME280;41577;47.470;19.080;2023-06-26T00:36:27;100055.72;;;19.55;100.00
53868;BME280;41577;47.470;19.080;2023-06-26T00:36:39;100060.03;;;19.56;100.00
53868;BME280;41577;47.470;19.080;2023-06-26T00:36:51;100070.06;;;19.55;100.00
53868;BME280;41577;47.470;19.080;2023-06-26T00:37:03;100063.56;;;19.56;100.00
53868;BME280;41577;47.470;19.080;2023-06-26T00:37:15;100063.56;;;19.56;100.00
53868;BME280;41577;47.470;19.080;2023-06-26T00:37:27;100060.03;;;19.56;100.00
53868;BME280;41577;47.470;19.080;2023-06-26T00:37:38;100059.47;;;19.54;100.00
53868;BME280;41577;47.470;19.080;2023-06-26T00:37:50;100061.41;;;19.58;100.00
53868;BME280;41577;47.470;19.080;2023-06-26T00:38:02;100058.97;;;19.57;100.00
53868;BME280;41577;47.470;19.080;2023-06-26T00:38:14;100057.09;;;19.57;100.00
53868;BME280;41577;47.470;19.080;2023-06-26T00:38:25;100057.91;;;19.58;100.00
53868;BME280;41577;47.470;19.080;2023-06-26T00:38:37;100063.31;;;19.58;100.00
53868;BME280;41577;47.470;19.080;2023-06-26T00:38:50;100061.69;;;19.57;100.00
53868;BME280;41577;47.470;19.080;2023-06-26T00:39:02;100057.91;;;19.58;100.00
53868;BME280;41577;47.470;19.080;2023-06-26T00:39:14;100055.19;;;19.58;100.00
53868;BME280;41577;47.470;19.080;2023-06-26T00:39:25;100061.41;;;19.58;100.00
53868;BME280;41577;47.470;19.080;2023-06-26T00:39:37;100055.19;;;19.58;100.00
53868;BME280;41577;47.470;19.080;2023-06-26T00:39:49;100063.06;;;19.59;100.00
53868;BME280;41577;47.470;19.080;2023-06-26T00:40:01;100058.47;;;19.60;100.00
53868;BME280;41577;47.470;19.080;2023-06-26T00:40:13;100063.06;;;19.59;100.00
53868;BME280;41577;47.470;19.080;2023-06-26T00:40:25;100057.66;;;19.59;100.00
53868;BME280;41577;47.470;19.080;2023-06-26T00:40:36;100062.22;;;19.59;100.00
53868;BME280;41577;47.470;19.080;2023-06-26T00:40:49;100057.66;;;19.59;100.00
53868;BME280;41577;47.470;19.080;2023-06-26T00:41:02;100061.97;;;19.60;100.00
53868;BME280;41577;47.470;19.080;2023-06-26T00:41:13;100050.28;;;19.55;100.00
53868;BME280;41577;47.470;19.080;2023-06-26T00:41:25;100056.81;;;19.59;100.00
53868;BME280;41577;47.470;19.080;2023-06-26T00:41:37;100066.59;;;19.60;100.00
53868;BME280;41577;47.470;19.080;2023-06-26T00:41:49;100063.06;;;19.59;100.00
53868;BME280;41577;47.470;19.080;2023-06-26T00:42:02;100059.78;;;19.57;100.00
53868;BME280;41577;47.470;19.080;2023-06-26T00:42:14;100063.31;;;19.58;100.00
53868;BME280;41577;47.470;19.080;2023-06-26T00:42:25;100061.19;;;19.60;100.00
53868;BME280;41577;47.470;19.080;2023-06-26T00:42:37;100059.53;;;19.59;100.00
53868;BME280;41577;47.470;19.080;2023-06-26T00:42:49;100057.09;;;19.57;100.00
53868;BME280;41577;47.470;19.080;2023-06-26T00:43:01;100063.06;;;19.59;100.00
53868;BME280;41577;47.470;19.080;2023-06-26T00:43:13;100065.78;;;19.59;100.00
53868;BME280;41577;47.470;19.080;2023-06-26T00:43:25;100058.72;;;19.58;100.00
53868;BME280;41577;47.470;19.080;2023-06-26T00:43:38;100064.13;;;19.58;100.00
53868;BME280;41577;47.470;19.080;2023-06-26T00:43:49;100061.41;;;19.58;100.00
53868;BME280;41577;47.470;19.080;2023-06-26T00:44:01;100061.41;;;19.58;100.00
53868;BME280;41577;47.470;19.080;2023-06-26T00:44:13;100062.22;;;19.59;100.00
53868;BME280;41577;47.470;19.080;2023-06-26T00:44:24;100064.94;;;19.59;100.00
53868;BME280;41577;47.470;19.080;2023-06-26T00:44:37;100063.88;;;19.60;100.00
53868;BME280;41577;47.470;19.080;2023-06-26T00:44:48;100058.72;;;19.58;100.00
53868;BME280;41577;47.470;19.080;2023-06-26T00:45:00;100062.22;;;19.59;100.00
53868;BME280;41577;47.470;19.080;2023-06-26T00:45:12;100064.13;;;19.58;100.00
53868;BME280;41577;47.470;19.080;2023-06-26T00:45:24;100066.84;;;19.58;100.00
53868;BME280;41577;47.470;19.080;2023-06-26T00:45:52;100061.41;;;19.58;100.00
53868;BME280;41577;47.470;19.080;2023-06-26T00:46:04;100063.31;;;19.58;100.00
53868;BME280;41577;47.470;19.080;2023-06-26T00:46:16;100066.03;;;19.58;100.00
53868;BME280;41577;47.470;19.080;2023-06-26T00:46:28;100064.13;;;19.58;100.00
53868;BME280;41577;47.470;19.080;2023-06-26T00:46:42;100060.59;;;19.58;100.00
53868;BME280;41577;47.470;19.080;2023-06-26T00:46:55;100064.13;;;19.58;100.00
53868;BME280;41577;47.470;19.080;2023-06-26T00:47:07;100067.66;;;19.59;100.00
53868;BME280;41577;47.470;19.080;2023-06-26T00:47:19;100065.78;;;19.59;100.00
53868;BME280;41577;47.470;19.080;2023-06-26T00:47:31;100061.41;;;19.58;100.00
53868;BME280;41577;47.470;19.080;2023-06-26T00:47:43;100065.78;;;19.59;100.00
53868;BME280;41577;47.470;19.080;2023-06-26T00:47:55;100066.03;;;19.58;100.00
53868;BME280;41577;47.470;19.080;2023-06-26T00:48:08;100057.91;;;19.58;100.00
53868;BME280;41577;47.470;19.080;2023-06-26T00:48:20;100066.84;;;19.58;100.00
53868;BME280;41577;47.470;19.080;2023-06-26T00:48:32;100064.41;;;19.57;100.00
53868;BME280;41577;47.470;19.080;2023-06-26T00:48:45;100060.59;;;19.58;100.00
53868;BME280;41577;47.470;19.080;2023-06-26T00:48:59;100064.41;;;19.57;100.00
53868;BME280;41577;47.470;19.080;2023-06-26T00:49:11;100061.41;;;19.58;100.00
53868;BME280;41577;47.470;19.080;2023-06-26T00:49:24;100066.84;;;19.58;100.00
53868;BME280;41577;47.470;19.080;2023-06-26T00:49:37;100060.59;;;19.58;100.00
53868;BME280;41577;47.470;19.080;2023-06-26T00:49:48;100061.41;;;19.58;100.00
53868;BME280;41577;47.470;19.080;2023-06-26T00:50:00;100074.16;;;19.58;100.00
53868;BME280;41577;47.470;19.080;2023-06-26T00:50:13;100057.91;;;19.58;100.00
53868;BME280;41577;47.470;19.080;2023-06-26T00:50:25;100064.13;;;19.58;100.00
53868;BME280;41577;47.470;19.080;2023-06-26T00:50:37;100063.88;;;19.60;100.00
53868;BME280;41577;47.470;19.080;2023-06-26T00:50:49;100060.59;;;19.58;100.00
53868;BME280;41577;47.470;19.080;2023-06-26T00:51:01;100062.22;;;19.59;100.00
53868;BME280;41577;47.470;19.080;2023-06-26T00:51:13;100059.53;;;19.59;100.00
53868;BME280;41577;47.470;19.080;2023-06-26T00:51:25;100064.69;;;19.60;100.00
53868;BME280;41577;47.470;19.080;2023-06-26T00:51:37;100057.91;;;19.58;100.00
53868;BME280;41577;47.470;19.080;2023-06-26T00:51:49;100063.88;;;19.60;100.00
53868;BME280;41577;47.470;19.080;2023-06-26T00:52:02;100063.88;;;19.60;100.00
53868;BME280;41577;47.470;19.080;2023-06-26T00:52:15;100066.34;;;19.61;100.00
53868;BME280;41577;47.470;19.080;2023-06-26T00:52:27;100063.63;;;19.61;100.00
53868;BME280;41577;47.470;19.080;2023-06-26T00:52:39;100060.09;;;19.61;100.00
53868;BME280;41577;47.470;19.080;2023-06-26T00:52:51;100060.09;;;19.61;100.00
53868;BME280;41577;47.470;19.080;2023-06-26T00:53:03;100062.78;;;19.61;100.00
53868;BME280;41577;47.470;19.080;2023-06-26T00:53:14;100060.94;;;19.61;100.00
53868;BME280;41577;47.470;19.080;2023-06-26T00:53:26;100056.88;;;19.64;100.00
53868;BME280;41577;47.470;19.080;2023-06-26T00:53:39;100060.41;;;19.64;100.00
53868;BME280;41577;47.470;19.080;2023-06-26T00:53:51;100061.22;;;19.65;100.00
53868;BME280;41577;47.470;19.080;2023-06-26T00:54:03;100057.69;;;19.64;100.00
53868;BME280;41577;47.470;19.080;2023-06-26T00:54:15;100059.31;;;19.65;100.00
53868;BME280;41577;47.470;19.080;2023-06-26T00:54:27;100064.75;;;19.65;100.00
53868;BME280;41577;47.470;19.080;2023-06-26T00:54:39;100064.50;;;19.67;100.00
53868;BME280;41577;47.470;19.080;2023-06-26T00:54:51;100064.50;;;19.67;100.00
53868;BME280;41577;47.470;19.080;2023-06-26T00:55:04;100059.06;;;19.67;100.00
53868;BME280;41577;47.470;19.080;2023-06-26T00:55:15;100064.84;;;19.71;100.00
53868;BME280;41577;47.470;19.080;2023-06-26T00:55:27;100061.56;;;19.69;100.00
53868;BME280;41577;47.470;19.080;2023-06-26T00:55:40;100055.63;;;19.72;100.00
53868;BME280;41577;47.470;19.080;2023-06-26T00:55:53;100062.13;;;19.71;100.00
53868;BME280;41577;47.470;19.080;2023-06-26T00:56:05;100061.06;;;19.72;100.00
53868;BME280;41577;47.470;19.080;2023-06-26T00:56:20;100054.81;;;19.71;100.00
53868;BME280;41577;47.470;19.080;2023-06-26T00:56:32;100063.75;;;19.72;100.00
53868;BME280;41577;47.470;19.080;2023-06-26T00:56:45;100061.06;;;19.72;100.00
53868;BME280;41577;47.470;19.080;2023-06-26T00:56:56;100057.25;;;19.73;100.00
53868;BME280;41577;47.470;19.080;2023-06-26T00:57:08;100058.09;;;19.73;100.00
53868;BME280;41577;47.470;19.080;2023-06-26T00:57:20;100057.00;;;19.74;100.00
53868;BME280;41577;47.470;19.080;2023-06-26T00:57:32;100058.09;;;19.73;100.00
53868;BME280;41577;47.470;19.080;2023-06-26T00:57:44;100051.84;;;19.73;100.00
53868;BME280;41577;47.470;19.080;2023-06-26T00:57:56;100055.41;;;19.73;100.00
53868;BME280;41577;47.470;19.080;2023-06-26T00:58:07;100058.09;;;19.73;100.00
53868;BME280;41577;47.470;19.080;2023-06-26T00:58:20;100057.00;;;19.74;100.00
53868;BME280;41577;47.470;19.080;2023-06-26T00:58:34;100054.06;;;19.76;100.00
53868;BME280;41577;47.470;19.080;2023-06-26T00:58:45;100057.00;;;19.74;100.00
53868;BME280;41577;47.470;19.080;2023-06-26T00:58:57;100061.09;;;19.77;100.00
53868;BME280;41577;47.470;19.080;2023-06-26T00:59:10;100061.38;;;19.75;100.00
53868;BME280;41577;47.470;19.080;2023-06-26T00:59:22;100056.78;;;19.76;100.00
53868;BME280;41577;47.470;19.080;2023-06-26T00:59:34;100064.09;;;19.75;100.00
53868;BME280;41577;47.470;19.080;2023-06-26T00:59:46;100060.28;;;19.76;100.00
53868;BME280;41577;47.470;19.080;2023-06-26T01:00:00;100054.06;;;19.76;100.00
53868;BME280;41577;47.470;19.080;2023-06-26T01:00:15;100059.47;;;19.76;100.00
53868;BME280;41577;47.470;19.080;2023-06-26T01:00:27;100053.25;;;19.75;100.00
53868;BME280;41577;47.470;19.080;2023-06-26T01:00:39;100056.78;;;19.76;100.00
53868;BME280;41577;47.470;19.080;2023-06-26T01:00:52;100059.47;;;19.76;100.00
53868;BME280;41577;47.470;19.080;2023-06-26T01:01:04;100057.00;;;19.74;100.00
53868;BME280;41577;47.470;19.080;2023-06-26T01:01:16;100060.28;;;19.76;100.00
53868;BME280;41577;47.470;19.080;2023-06-26T01:01:27;100060.28;;;19.76;100.00